Time;durP1;ratioP1;P1;durP2;ratioP2;P2;SDS_P1;SDS_P2;PMS_P1;PMS_P2;Temp;Humidity;BMP_temperature;BMP_pressure;BME280_temperature;BME280_humidity;BME280_pressure;Samples;Min_cycle;Max_cycle;Signal;HPM_P1;HPM_P2
2021/08/14 00:01:56;;;;;;;13.93;7.32;;;;;;;15.33;100.00;102104.69;5154184;28;20290;-67
2021/08/14 00:04:27;;;;;;;15.95;7.03;;;;;;;15.33;100.00;102109.97;5155394;28;20035;-68
2021/08/14 00:06:58;;;;;;;12.25;7.10;;;;;;;15.28;100.00;102102.44;5154643;28;20027;-67
2021/08/14 00:09:30;;;;;;;17.55;7.75;;;;;;;15.35;100.00;102096.66;5153257;28;20035;-67
2021/08/14 00:12:04;;;;;;;14.65;7.88;;;;;;;15.30;100.00;102095.25;5154753;29;20031;-67
2021/08/14 00:14:35;;;;;;;14.15;7.30;;;;;;;15.30;100.00;102097.91;5155143;28;20666;-67
2021/08/14 00:17:06;;;;;;;17.27;8.80;;;;;;;15.31;100.00;102094.28;5154558;28;20036;-67
2021/08/14 00:19:38;;;;;;;12.90;7.70;;;;;;;15.29;100.00;102093.56;5152229;28;20378;-67
2021/08/14 00:22:09;;;;;;;14.90;8.30;;;;;;;15.30;100.00;102097.91;5154397;29;20023;-67
2021/08/14 00:24:40;;;;;;;16.13;8.60;;;;;;;15.28;100.00;102099.81;5154054;29;20033;-67
2021/08/14 00:27:11;;;;;;;14.20;7.57;;;;;;;15.28;100.00;102091.88;5154732;28;20074;-67
2021/08/14 00:29:43;;;;;;;13.63;7.43;;;;;;;15.22;100.00;102089.75;5153159;28;20039;-67
2021/08/14 00:32:15;;;;;;;16.77;8.10;;;;;;;15.23;100.00;102085.34;5153277;28;20298;-67
2021/08/14 00:34:46;;;;;;;18.05;8.18;;;;;;;15.19;100.00;102092.69;5154331;29;20081;-67
2021/08/14 00:37:17;;;;;;;14.90;7.20;;;;;;;15.23;100.00;102087.97;5151921;29;20358;-67
2021/08/14 00:39:48;;;;;;;16.60;7.93;;;;;;;15.22;100.00;102089.75;5153378;28;20038;-67
2021/08/14 00:42:20;;;;;;;18.08;8.10;;;;;;;15.25;100.00;102092.16;5154661;29;20031;-67
2021/08/14 00:44:51;;;;;;;16.90;8.35;;;;;;;15.20;100.00;102086.44;5152658;28;20118;-67
2021/08/14 00:47:27;;;;;;;13.77;8.38;;;;;;;15.17;100.00;102091.97;5153976;28;20074;-67
2021/08/14 00:49:58;;;;;;;13.82;7.97;;;;;;;15.12;100.00;102088.88;5153830;29;20035;-67
2021/08/14 00:52:29;;;;;;;14.32;7.82;;;;;;;15.09;100.00;102082.06;5153421;28;20532;-67
2021/08/14 00:55:01;;;;;;;18.92;8.48;;;;;;;15.14;100.00;102086.94;5154284;28;20417;-67
2021/08/14 00:57:32;;;;;;;15.50;7.05;;;;;;;15.10;100.00;102088.16;5153635;29;20042;-67
2021/08/14 01:00:04;;;;;;;16.15;7.93;;;;;;;15.04;100.00;102086.88;5154335;28;20031;-67
2021/08/14 01:02:35;;;;;;;16.83;7.35;;;;;;;15.01;100.00;102086.31;5152849;29;20039;-67
2021/08/14 01:05:09;;;;;;;18.80;8.07;;;;;;;14.94;100.00;102080.69;5153993;28;20515;-67
2021/08/14 01:07:40;;;;;;;15.93;8.55;;;;;;;14.89;100.00;102082.91;5151752;28;20067;-67
2021/08/14 01:10:11;;;;;;;14.88;8.43;;;;;;;14.87;100.00;102084.81;5153768;28;20061;-67
2021/08/14 01:12:43;;;;;;;13.13;7.95;;;;;;;14.77;100.00;102090.03;5154108;29;20086;-67
2021/08/14 01:15:14;;;;;;;15.85;8.43;;;;;;;14.73;100.00;102082.47;5153511;28;20038;-67
2021/08/14 01:17:46;;;;;;;17.20;8.73;;;;;;;14.73;100.00;102088.59;5153426;28;20023;-67
2021/08/14 01:20:17;;;;;;;18.98;8.63;;;;;;;14.70;100.00;102086.22;5152324;28;20023;-67
2021/08/14 01:22:50;;;;;;;13.60;7.85;;;;;;;14.68;100.00;102077.59;5152103;29;20027;-67
2021/08/14 01:25:21;;;;;;;15.40;8.50;;;;;;;14.68;100.00;102080.22;5153564;29;20034;-67
2021/08/14 01:27:53;;;;;;;14.43;8.77;;;;;;;14.69;100.00;102081.06;5152871;28;20290;-67
2021/08/14 01:30:25;;;;;;;20.07;9.17;;;;;;;14.65;100.00;102080.47;5152968;28;20250;-67
2021/08/14 01:32:56;;;;;;;16.33;9.23;;;;;;;14.65;100.00;102067.28;5149440;28;20027;-67
2021/08/14 01:35:28;;;;;;;17.10;8.85;;;;;;;14.57;100.00;102062.63;5152207;28;20031;-67
2021/08/14 01:37:59;;;;;;;14.43;8.55;;;;;;;14.59;100.00;102065.16;5153554;28;20019;-67
2021/08/14 01:40:30;;;;;;;14.80;8.57;;;;;;;14.61;100.00;102065.88;5152671;28;20608;-67
2021/08/14 01:43:02;;;;;;;18.08;8.50;;;;;;;14.58;100.00;102068.75;5152916;28;20055;-67
2021/08/14 01:45:33;;;;;;;13.27;8.00;;;;;;;14.49;100.00;102067.72;5153007;28;20023;-67
2021/08/14 01:48:05;;;;;;;15.77;8.73;;;;;;;14.55;100.00;102069.84;5153400;28;20565;-67
2021/08/14 01:50:36;;;;;;;19.27;8.77;;;;;;;14.50;100.00;102071.19;5152447;28;20037;-67
2021/08/14 01:53:07;;;;;;;16.40;7.72;;;;;;;14.51;100.00;102067.59;5151501;28;20078;-67
2021/08/14 01:55:39;;;;;;;15.23;8.60;;;;;;;14.49;100.00;102065.06;5152981;28;20027;-67
2021/08/14 01:58:10;;;;;;;17.15;8.60;;;;;;;14.49;100.00;102064.22;5153305;29;20400;-67
2021/08/14 02:00:41;;;;;;;17.25;8.82;;;;;;;14.44;100.00;102059.31;5150807;28;20034;-67
2021/08/14 02:03:13;;;;;;;18.40;8.60;;;;;;;14.49;100.00;102057.16;5151689;28;20035;-67
2021/08/14 02:05:45;;;;;;;18.70;8.45;;;;;;;14.45;100.00;102058.34;5150842;28;20037;-67
2021/08/14 02:08:16;;;;;;;17.63;8.83;;;;;;;14.44;100.00;102050.56;5152635;29;20058;-67
2021/08/14 02:10:47;;;;;;;19.38;8.82;;;;;;;14.41;100.00;102050.81;5152678;28;20478;-67
2021/08/14 02:13:19;;;;;;;16.20;8.57;;;;;;;14.43;100.00;102059.44;5151899;29;20377;-67
2021/08/14 02:15:50;;;;;;;14.93;8.05;;;;;;;14.39;100.00;102052.72;5151892;28;20043;-67
2021/08/14 02:18:21;;;;;;;20.08;8.48;;;;;;;14.33;100.00;102047.00;5147967;28;20401;-67
2021/08/14 02:20:53;;;;;;;16.63;7.70;;;;;;;14.31;100.00;102042.81;5153312;28;20027;-67
2021/08/14 02:23:24;;;;;;;19.50;9.07;;;;;;;14.31;100.00;102042.81;5152816;28;20037;-67
2021/08/14 02:25:55;;;;;;;18.75;8.27;;;;;;;14.28;100.00;102035.16;5151602;28;20039;-67
2021/08/14 02:28:27;;;;;;;17.40;8.40;;;;;;;14.27;100.00;102036.94;5151631;28;20042;-68
2021/08/14 02:31:00;;;;;;;16.27;8.20;;;;;;;14.31;100.00;102034.91;5150779;29;20059;-67
2021/08/14 02:33:32;;;;;;;19.00;7.95;;;;;;;14.25;100.00;102040.69;5152194;28;20038;-67
2021/08/14 02:36:05;;;;;;;18.65;8.63;;;;;;;14.27;100.00;102033.50;5151946;28;20024;-67
2021/08/14 02:38:37;;;;;;;;;;;;;;;14.51;100.00;102033.31;5151573;29;20378;-67
2021/08/14 02:41:09;;;;;;;17.75;7.75;;;;;;;14.24;100.00;102034.56;5152033;29;19918;-67
2021/08/14 02:43:40;;;;;;;18.02;7.95;;;;;;;14.21;100.00;102034.00;5152040;28;20023;-67
2021/08/14 02:46:11;;;;;;;14.40;7.97;;;;;;;14.18;100.00;102029.81;5150837;28;20027;-67
2021/08/14 02:48:42;;;;;;;17.98;8.63;;;;;;;14.21;100.00;102028.72;5151931;28;20054;-67
2021/08/14 02:51:15;;;;;;;16.70;8.18;;;;;;;14.15;100.00;102030.06;5151694;28;20031;-67
2021/08/14 02:53:47;;;;;;;13.73;7.68;;;;;;;14.09;100.00;102022.63;5151244;28;20089;-67
2021/08/14 02:56:18;;;;;;;18.25;8.00;;;;;;;14.08;100.00;102013.06;5151796;28;20026;-67
2021/08/14 02:58:49;;;;;;;16.63;7.93;;;;;;;14.11;100.00;102031.25;5152867;28;20146;-68
2021/08/14 03:01:21;;;;;;;18.80;8.20;;;;;;;14.05;100.00;102029.97;5151753;28;20055;-68
2021/08/14 03:03:52;;;;;;;17.33;7.47;;;;;;;14.06;100.00;102030.81;5150735;28;20031;-67
2021/08/14 03:06:27;;;;;;;16.77;8.15;;;;;;;14.07;100.00;102035.09;5152148;28;20027;-67
2021/08/14 03:08:58;;;;;;;15.90;8.30;;;;;;;14.04;100.00;102035.34;5151571;29;20481;-67
2021/08/14 03:11:30;;;;;;;15.57;7.60;;;;;;;13.98;100.00;102023.53;5151645;28;20046;-67
2021/08/14 03:14:01;;;;;;;18.30;7.88;;;;;;;13.98;100.00;102035.84;5151793;28;20519;-67
2021/08/14 03:16:32;;;;;;;16.00;7.25;;;;;;;13.97;100.00;102036.81;5151859;28;20405;-67
2021/08/14 03:19:04;;;;;;;16.75;7.13;;;;;;;13.96;100.00;102029.88;5151618;28;20058;-67
2021/08/14 03:21:35;;;;;;;14.25;7.70;;;;;;;13.93;100.00;102030.09;5149647;28;20027;-67
2021/08/14 03:24:06;;;;;;;12.23;7.13;;;;;;;13.92;100.00;102025.81;5151665;29;20012;-68
2021/08/14 03:26:38;;;;;;;17.70;7.75;;;;;;;13.86;100.00;102016.56;5150749;28;20016;-68
2021/08/14 03:29:09;;;;;;;19.70;8.40;;;;;;;13.86;100.00;102016.56;5153221;28;20038;-67
2021/08/14 03:31:40;;;;;;;15.95;8.27;;;;;;;13.81;100.00;102019.59;5158504;28;20532;-68
2021/08/14 03:34:11;;;;;;;15.45;6.65;;;;;;;13.85;100.00;102017.53;5158327;28;20030;-68
2021/08/14 03:36:43;;;;;;;15.15;8.02;;;;;;;13.82;100.00;102015.97;5158153;28;20631;-68
2021/08/14 03:39:14;;;;;;;15.90;6.70;;;;;;;13.81;100.00;102022.22;5158387;28;20432;-67
2021/08/14 03:41:45;;;;;;;19.85;8.18;;;;;;;13.76;100.00;102011.22;5157926;28;20035;-68
2021/08/14 03:44:16;;;;;;;16.92;7.57;;;;;;;13.74;100.00;102017.56;5159319;28;20027;-67
2021/08/14 03:46:48;;;;;;;15.48;7.50;;;;;;;13.68;100.00;102011.00;5156805;28;20027;-68
2021/08/14 03:49:19;;;;;;;12.98;8.02;;;;;;;13.67;100.00;102017.22;5158747;28;20023;-66
2021/08/14 03:51:51;;;;;;;14.20;7.35;;;;;;;13.63;100.00;102016.59;5158138;28;20059;-67
2021/08/14 03:54:22;;;;;;;17.08;7.57;;;;;;;13.62;100.00;102017.56;5157773;28;20038;-67
2021/08/14 03:56:55;;;;;;;15.52;7.57;;;;;;;13.61;100.00;102017.72;5157950;29;20042;-67
2021/08/14 03:59:27;;;;;;;16.70;8.02;;;;;;;13.60;100.00;102014.25;5157717;28;20037;-67
2021/08/14 04:01:58;;;;;;;19.05;7.45;;;;;;;13.49;100.00;102010.78;5154932;28;20035;-67
2021/08/14 04:04:29;;;;;;;14.57;7.07;;;;;;;13.54;100.00;102019.16;5155469;28;20324;-67
2021/08/14 04:07:01;;;;;;;16.65;7.63;;;;;;;13.48;100.00;102023.09;5157009;28;20027;-66
2021/08/14 04:09:32;;;;;;;12.90;6.45;;;;;;;13.48;100.00;102030.97;5156179;28;20030;-67
2021/08/14 04:12:05;;;;;;;18.40;8.30;;;;;;;13.42;100.00;102028.00;5156881;28;20038;-67
2021/08/14 04:14:37;;;;;;;;;;;;;;;13.72;100.00;102033.50;5158115;28;20019;-67
2021/08/14 04:17:08;;;;;;;13.57;6.50;;;;;;;13.46;100.00;102032.91;5157714;28;20312;-67
2021/08/14 04:19:39;;;;;;;14.82;7.05;;;;;;;13.41;100.00;102028.94;5157709;28;20064;-67
2021/08/14 04:22:10;;;;;;;16.92;6.97;;;;;;;13.42;100.00;102031.47;5157578;28;20031;-67
2021/08/14 04:24:42;;;;;;;14.68;7.03;;;;;;;13.38;100.00;102030.88;5157269;28;20027;-66
2021/08/14 04:27:13;;;;;;;12.80;6.75;;;;;;;13.38;100.00;102022.97;5158192;28;20054;-67
2021/08/14 04:29:44;;;;;;;16.80;7.30;;;;;;;13.38;100.00;102025.63;5157990;28;20421;-67
2021/08/14 04:32:16;;;;;;;12.65;6.63;;;;;;;13.34;100.00;102018.09;5156996;28;20416;-67
2021/08/14 04:34:47;;;;;;;14.25;6.93;;;;;;;13.32;100.00;102015.56;5158000;28;20027;-67
2021/08/14 04:37:18;;;;;;;16.73;6.97;;;;;;;13.30;100.00;102024.53;5158096;28;20059;-67
2021/08/14 04:39:49;;;;;;;12.63;6.80;;;;;;;13.30;100.00;102021.91;5156756;28;20085;-66
2021/08/14 04:42:21;;;;;;;15.57;6.70;;;;;;;13.31;100.00;102024.41;5154464;28;20123;-67
2021/08/14 04:44:52;;;;;;;14.70;7.10;;;;;;;13.28;100.00;102023.81;5154370;28;20034;-67
2021/08/14 04:47:23;;;;;;;19.65;7.15;;;;;;;13.31;100.00;102027.03;5151706;29;20065;-67
2021/08/14 04:49:55;;;;;;;14.43;7.85;;;;;;;13.30;100.00;102014.84;5153926;28;20019;-67
2021/08/14 04:52:26;;;;;;;14.95;6.93;;;;;;;13.34;100.00;102013.66;5154375;28;20125;-66
2021/08/14 04:54:58;;;;;;;13.55;6.40;;;;;;;13.33;100.00;102014.63;5154615;29;20031;-67
2021/08/14 04:57:30;;;;;;;14.18;6.47;;;;;;;13.36;100.00;102021.41;5154330;28;20515;-67
2021/08/14 05:00:05;;;;;;;15.45;7.15;;;;;;;13.39;100.00;102023.81;5154348;28;20122;-66
2021/08/14 05:02:36;;;;;;;13.48;6.50;;;;;;;13.35;100.00;102022.38;5153931;29;20031;-67
2021/08/14 05:05:08;;;;;;;14.27;6.60;;;;;;;13.36;100.00;102029.31;5154052;28;20560;-67
2021/08/14 05:07:39;;;;;;;22.20;7.25;;;;;;;13.35;100.00;102020.59;5153253;29;20485;-67
2021/08/14 05:10:14;;;;;;;16.75;6.70;;;;;;;13.41;100.00;102021.91;5153760;29;20433;-66
2021/08/14 05:12:46;;;;;;;15.13;6.95;;;;;;;13.38;100.00;102025.63;5154189;29;20031;-66
2021/08/14 05:15:17;;;;;;;16.10;6.43;;;;;;;13.42;100.00;102026.22;5153939;29;20373;-66
2021/08/14 05:17:48;;;;;;;21.15;6.93;;;;;;;13.47;100.00;102033.75;5153969;28;20027;-67
2021/08/14 05:20:19;;;;;;;14.40;6.90;;;;;;;13.47;100.00;102037.22;5153962;28;20027;-67
2021/08/14 05:22:51;;;;;;;16.70;7.30;;;;;;;13.54;100.00;102032.31;5153447;28;20073;-67
2021/08/14 05:25:22;;;;;;;15.07;6.38;;;;;;;13.57;100.00;102032.06;5153276;28;20034;-67
2021/08/14 05:27:53;;;;;;;15.48;6.60;;;;;;;13.58;100.00;102023.22;5152407;29;20038;-66
2021/08/14 05:30:25;;;;;;;13.98;6.43;;;;;;;13.62;100.00;102014.94;5153669;28;20137;-67
2021/08/14 05:32:56;;;;;;;14.40;7.15;;;;;;;13.68;100.00;102018.06;5153516;28;20027;-67
2021/08/14 05:35:27;;;;;;;16.63;6.55;;;;;;;13.72;100.00;102017.69;5153275;28;20044;-67
2021/08/14 05:37:59;;;;;;;15.57;5.93;;;;;;;13.78;100.00;102019.81;5152856;28;20077;-67
2021/08/14 05:40:30;;;;;;;19.70;7.22;;;;;;;13.81;100.00;102024.84;5152183;28;20566;-66
2021/08/14 05:43:03;;;;;;;19.55;7.57;;;;;;;13.84;100.00;102015.88;5153654;29;20087;-66
2021/08/14 05:45:35;;;;;;;17.15;7.50;;;;;;;13.86;100.00;102024.47;5152422;28;20019;-67
2021/08/14 05:48:06;;;;;;;16.65;7.05;;;;;;;13.90;100.00;102015.38;5153542;29;20432;-67
2021/08/14 05:50:38;;;;;;;16.55;7.35;;;;;;;13.96;100.00;102021.97;5152801;28;20031;-67
2021/08/14 05:53:09;;;;;;;17.67;6.75;;;;;;;13.99;100.00;102013.81;5149773;28;20035;-67
2021/08/14 05:55:40;;;;;;;16.45;7.00;;;;;;;14.03;100.00;102015.25;5153223;28;20023;-67
2021/08/14 05:58:12;;;;;;;16.92;7.47;;;;;;;14.08;100.00;102008.63;5153694;28;20015;-66
2021/08/14 06:00:43;;;;;;;16.95;6.88;;;;;;;14.12;100.00;102015.31;5151644;28;20062;-67
2021/08/14 06:03:14;;;;;;;16.27;6.40;;;;;;;14.16;100.00;102021.19;5144937;28;20038;-66
2021/08/14 06:05:46;;;;;;;19.55;7.30;;;;;;;14.19;100.00;102009.56;5152750;28;20031;-68
2021/08/14 06:08:17;;;;;;;15.15;6.80;;;;;;;14.25;100.00;102012.53;5152215;29;20031;-68
2021/08/14 06:10:48;;;;;;;21.23;7.30;;;;;;;14.31;100.00;102019.09;5152102;28;20106;-68
2021/08/14 06:13:20;;;;;;;18.75;7.50;;;;;;;14.29;100.00;102016.59;5152460;28;20038;-68
2021/08/14 06:15:51;;;;;;;20.65;8.13;;;;;;;14.44;100.00;102024.22;5151924;28;20573;-68
2021/08/14 06:18:22;;;;;;;14.65;7.38;;;;;;;14.48;100.00;102030.91;5151559;28;20118;-68
2021/08/14 06:20:53;;;;;;;20.85;8.02;;;;;;;14.54;100.00;102014.59;5151053;29;20695;-68
2021/08/14 06:23:25;;;;;;;18.67;7.35;;;;;;;14.60;100.00;102027.28;5153141;29;20027;-68
2021/08/14 06:25:56;;;;;;;20.83;7.95;;;;;;;14.66;100.00;102031.19;5151031;28;20058;-68
2021/08/14 06:28:27;;;;;;;16.00;7.38;;;;;;;14.70;100.00;102030.84;5150293;28;20090;-68
2021/08/14 06:30:59;;;;;;;19.20;8.07;;;;;;;14.76;100.00;102025.03;5151326;28;20058;-68
2021/08/14 06:33:30;;;;;;;16.90;8.20;;;;;;;14.84;100.00;102033.13;5151889;29;20063;-67
2021/08/14 06:36:01;;;;;;;24.85;8.98;;;;;;;14.86;100.00;102013.72;5151679;28;20031;-68
2021/08/14 06:38:33;;;;;;;18.95;8.40;;;;;;;14.99;100.00;102031.00;5147559;28;20057;-68
2021/08/14 06:41:04;;;;;;;18.05;8.35;;;;;;;15.05;100.00;102030.50;5149923;28;20106;-68
2021/08/14 06:43:36;;;;;;;20.35;8.23;;;;;;;15.08;100.00;102024.97;5150367;28;20026;-67
2021/08/14 06:46:07;;;;;;;23.65;9.77;;;;;;;15.15;100.00;102034.97;5151426;29;20507;-68
2021/08/14 06:48:39;;;;;;;23.13;10.70;;;;;;;15.22;100.00;102026.41;5151393;28;20041;-67
2021/08/14 06:51:12;;;;;;;23.38;9.65;;;;;;;15.30;100.00;102023.09;5149793;28;20023;-66
2021/08/14 06:53:44;;;;;;;26.67;10.10;;;;;;;15.35;100.00;102038.56;5149329;29;20035;-67
2021/08/14 06:56:15;;;;;;;20.88;9.48;;;;;;;15.40;100.00;102039.84;5151553;29;20509;-67
2021/08/14 06:58:46;;;;;;;19.77;9.55;;;;;;;15.44;100.00;102040.41;5150823;28;20042;-67
2021/08/14 07:01:18;;;;;;;28.25;10.52;;;;;;;15.54;100.00;102030.72;5151237;28;20550;-67
2021/08/14 07:03:49;;;;;;;21.83;10.80;;;;;;;15.57;100.00;102022.53;5148202;28;20046;-67
2021/08/14 07:06:21;;;;;;;21.55;11.10;;;;;;;15.67;100.00;102025.22;5152035;28;20045;-67
2021/08/14 07:08:53;;;;;;;29.13;11.63;;;;;;;15.71;100.00;102016.88;5151645;29;20031;-67
2021/08/14 07:11:24;;;;;;;25.85;11.45;;;;;;;15.76;100.00;102017.34;5151120;28;20393;-67
2021/08/14 07:13:56;;;;;;;25.83;11.35;;;;;;;15.87;100.00;102020.81;5152256;28;20023;-67
2021/08/14 07:16:27;;;;;;;25.58;10.60;;;;;;;15.84;100.00;102010.53;5151046;28;20409;-67
2021/08/14 07:18:58;;;;;;;24.95;10.45;;;;;;;15.99;100.00;102020.59;5151023;28;20512;-67
2021/08/14 07:21:30;;;;;;;26.08;10.88;;;;;;;16.08;100.00;102024.22;5152008;28;20039;-67
2021/08/14 07:24:01;;;;;;;26.20;11.55;;;;;;;16.20;100.00;102023.09;5151658;28;20041;-66
2021/08/14 07:26:32;;;;;;;29.55;12.48;;;;;;;16.24;100.00;102024.50;5150152;28;20086;-67
2021/08/14 07:29:04;;;;;;;25.23;10.73;;;;;;;16.31;100.00;102024.78;5151169;29;20081;-67
2021/08/14 07:31:35;;;;;;;23.42;11.00;;;;;;;16.42;100.00;102024.66;5149782;29;20134;-67
2021/08/14 07:34:06;;;;;;;21.63;11.15;;;;;;;16.53;100.00;102027.16;5149225;28;20078;-67
2021/08/14 07:36:37;;;;;;;24.92;9.90;;;;;;;16.61;100.00;102020.31;5149264;28;20509;-67
2021/08/14 07:39:09;;;;;;;25.45;10.75;;;;;;;16.74;100.00;102029.69;5149129;28;20102;-67
2021/08/14 07:41:40;;;;;;;22.50;9.82;;;;;;;16.84;100.00;102031.47;5148502;28;20027;-67
2021/08/14 07:44:11;;;;;;;25.55;10.80;;;;;;;16.91;100.00;102027.28;5149714;28;20030;-67
2021/08/14 07:46:42;;;;;;;25.17;10.40;;;;;;;17.08;100.00;102023.88;5150842;28;20106;-67
2021/08/14 07:49:14;;;;;;;23.73;10.25;;;;;;;17.10;100.00;102024.56;5151331;28;20388;-67
2021/08/14 07:51:45;;;;;;;23.92;9.38;;;;;;;17.17;100.00;102008.94;5150482;28;20066;-67
2021/08/14 07:54:16;;;;;;;22.13;9.82;;;;;;;17.31;100.00;102027.00;5150872;28;20398;-70
2021/08/14 07:56:48;;;;;;;23.00;9.43;;;;;;;17.39;100.00;102015.69;5151140;28;20031;-66
2021/08/14 07:59:19;;;;;;;24.15;9.45;;;;;;;17.52;100.00;102021.47;5150333;28;20019;-66
2021/08/14 08:01:50;;;;;;;24.23;10.60;;;;;;;17.67;100.00;102024.47;5147971;28;20064;-66
2021/08/14 08:04:21;;;;;;;21.27;10.10;;;;;;;17.72;100.00;102024.84;5149581;28;20035;-66
2021/08/14 08:06:53;;;;;;;23.17;10.27;;;;;;;17.92;100.00;102025.63;5150610;28;20049;-65
2021/08/14 08:09:24;;;;;;;26.33;11.43;;;;;;;18.02;100.00;102031.69;5151344;28;20098;-65
2021/08/14 08:11:55;;;;;;;24.45;11.48;;;;;;;18.10;100.00;102023.81;5149038;28;20031;-66
2021/08/14 08:14:27;;;;;;;27.00;11.52;;;;;;;18.33;100.00;102026.84;5149288;28;20082;-66
2021/08/14 08:16:58;;;;;;;23.40;11.00;;;;;;;18.38;100.00;102013.16;5151788;28;20035;-67
2021/08/14 08:19:29;;;;;;;30.37;13.40;;;;;;;18.51;100.00;102015.41;5152014;28;20397;-66
2021/08/14 08:22:00;;;;;;;24.23;12.52;;;;;;;18.57;100.00;102006.84;5153197;28;20023;-65
2021/08/14 08:24:32;;;;;;;23.50;12.38;;;;;;;18.68;100.00;102010.06;5154597;29;20081;-66
2021/08/14 08:27:03;;;;;;;24.85;11.60;;;;;;;18.84;100.00;102006.72;5154259;28;20127;-66
2021/08/14 08:29:35;;;;;;;26.90;13.77;;;;;;;18.80;100.00;102007.19;5153686;28;20093;-66
2021/08/14 08:32:07;;;;;;;21.88;11.93;;;;;;;19.03;100.00;102004.84;5155217;28;20465;-65
2021/08/14 08:34:38;;;;;;;24.85;12.05;;;;;;;18.95;100.00;101995.00;5153787;29;20098;-65
2021/08/14 08:37:10;;;;;;;25.33;12.67;;;;;;;19.11;100.00;102013.69;5154044;28;20464;-66
2021/08/14 08:39:41;;;;;;;24.47;14.57;;;;;;;19.15;100.00;102012.38;5153549;28;20419;-66
2021/08/14 08:42:12;;;;;;;27.10;15.00;;;;;;;19.28;100.00;102011.97;5155179;28;20065;-65
2021/08/14 08:44:44;;;;;;;36.37;22.37;;;;;;;19.40;100.00;102015.16;5152165;28;20027;-65
2021/08/14 08:47:17;;;;;;;33.33;22.90;;;;;;;19.48;100.00;102020.50;5153696;28;20031;-66
2021/08/14 08:49:57;;;;;;;;;;;;;;;19.72;100.00;102018.97;5153150;29;20390;-67
2021/08/14 08:52:28;;;;;;;36.35;23.65;;;;;;;19.43;100.00;102015.69;5151246;28;20004;-66
2021/08/14 08:55:00;;;;;;;40.03;23.57;;;;;;;19.52;100.00;102008.56;5154311;28;20037;-66
2021/08/14 08:57:31;;;;;;;41.00;27.90;;;;;;;19.61;100.00;102007.59;5154235;28;20034;-66
2021/08/14 09:00:04;;;;;;;39.37;28.40;;;;;;;19.63;100.00;102007.47;5153405;29;20042;-67
2021/08/14 09:02:35;;;;;;;35.70;25.65;;;;;;;19.69;100.00;102001.50;5153084;28;20162;-67
2021/08/14 09:05:17;;;;;;;32.40;22.97;;;;;;;19.74;100.00;102006.34;5153784;28;20031;-65
2021/08/14 09:07:50;;;;;;;37.75;22.30;;;;;;;19.80;100.00;102011.00;5154566;29;20509;-66
2021/08/14 09:10:24;;;;;;;31.08;19.05;;;;;;;19.83;100.00;102008.03;5152852;28;20477;-67
2021/08/14 09:12:55;;;;;;;31.40;18.38;;;;;;;19.93;100.00;102000.75;5152559;29;20038;-65
2021/08/14 09:15:32;;;;;;;30.50;20.50;;;;;;;20.08;100.00;102003.59;5153303;29;20031;-65
2021/08/14 09:18:08;;;;;;;33.10;19.67;;;;;;;20.14;100.00;102013.56;5151404;28;20023;-66
2021/08/14 09:20:48;;;;;;;29.88;21.40;;;;;;;20.17;100.00;102014.06;5151090;28;20035;-66
2021/08/14 09:23:24;;;;;;;38.72;24.63;;;;;;;20.18;100.00;102015.72;5151793;29;20019;-67
2021/08/14 09:25:57;;;;;;;34.67;23.63;;;;;;;20.34;100.00;102008.75;5151619;29;20050;-65
2021/08/14 09:28:33;;;;;;;33.20;25.23;;;;;;;20.60;100.00;102006.78;5150561;28;20388;-67
2021/08/14 09:31:06;;;;;;;38.38;26.63;;;;;;;20.52;100.00;102005.97;5145674;29;20055;-66
2021/08/14 09:33:38;;;;;;;;;;;;;;;20.89;100.00;102010.75;5146583;29;20110;-65
2021/08/14 09:36:10;;;;;;;40.50;26.48;;;;;;;20.89;100.00;102014.22;5150675;28;19925;-66
2021/08/14 09:38:50;;;;;;;43.20;31.10;;;;;;;20.84;100.00;102007.75;5150355;28;20027;-65
2021/08/14 09:41:23;;;;;;;34.90;28.08;;;;;;;20.95;100.00;102001.22;5147416;28;20039;-67
2021/08/14 09:43:56;;;;;;;36.72;27.40;;;;;;;21.04;99.42;102009.03;5148478;29;20102;-64
2021/08/14 09:46:40;;;;;;;38.35;27.05;;;;;;;21.17;99.09;102010.31;5149567;29;20035;-66
2021/08/14 09:49:11;;;;;;;38.72;30.65;;;;;;;21.17;99.12;102007.66;5148594;28;20039;-66
2021/08/14 09:51:43;;;;;;;39.57;31.23;;;;;;;21.19;97.42;102008.34;5149373;28;20098;-66
2021/08/14 09:54:14;;;;;;;40.50;31.80;;;;;;;21.35;97.70;102002.97;5150454;28;20122;-65
2021/08/14 09:56:46;;;;;;;43.10;33.17;;;;;;;21.45;97.75;102011.59;5149740;28;20061;-67
2021/08/14 09:59:18;;;;;;;44.87;35.77;;;;;;;21.60;97.04;102007.19;5147916;29;20070;-65
2021/08/14 10:01:50;;;;;;;;;;;;;;;21.99;97.23;102005.47;5150729;28;20035;-67
2021/08/14 10:04:22;;;;;;;43.25;33.42;;;;;;;21.81;96.62;101997.72;5151666;28;19914;-66
2021/08/14 10:06:53;;;;;;;45.03;31.23;;;;;;;21.93;96.22;102000.81;5151243;28;20031;-66
2021/08/14 10:09:24;;;;;;;42.60;32.63;;;;;;;21.91;96.68;102006.34;5151796;28;20400;-65
2021/08/14 10:11:56;;;;;;;44.07;33.93;;;;;;;21.99;97.46;102008.13;5152130;28;20071;-66
2021/08/14 10:14:27;;;;;;;40.50;33.40;;;;;;;22.07;97.18;102013.41;5151977;28;20086;-65
2021/08/14 10:16:59;;;;;;;42.43;32.60;;;;;;;21.85;95.37;102007.03;5151408;28;20535;-66
2021/08/14 10:19:30;;;;;;;47.63;34.53;;;;;;;21.82;95.77;102012.72;5152884;29;20027;-66
2021/08/14 10:22:04;;;;;;;41.77;34.27;;;;;;;21.78;96.50;102016.75;5150598;29;20027;-65
2021/08/14 10:24:41;;;;;;;39.42;32.15;;;;;;;21.94;96.37;102014.00;5147741;28;20510;-65
2021/08/14 10:27:16;;;;;;;38.95;31.83;;;;;;;21.95;95.89;102014.84;5150438;29;20399;-67
2021/08/14 10:29:49;;;;;;;41.47;33.15;;;;;;;21.94;97.55;102016.69;5148830;29;20105;-66
2021/08/14 10:32:30;;;;;;;37.50;29.88;;;;;;;22.35;97.51;102013.75;5145543;29;20039;-65
2021/08/14 10:35:20;;;;;;;42.17;33.05;;;;;;;22.21;96.20;102014.53;5147029;29;20081;-66
2021/08/14 10:37:51;;;;;;;41.10;31.20;;;;;;;22.20;94.28;102013.69;5148187;28;20085;-65
2021/08/14 10:40:23;;;;;;;42.17;32.97;;;;;;;22.21;96.31;102014.53;5146230;28;20027;-66
2021/08/14 10:42:58;;;;;;;41.33;33.47;;;;;;;22.29;96.03;102017.94;5148333;29;20037;-66
2021/08/14 10:45:38;;;;;;;40.58;33.55;;;;;;;22.35;95.86;102021.75;5147346;29;20508;-66
2021/08/14 10:48:10;;;;;;;40.85;32.92;;;;;;;22.46;95.17;102015.16;5148796;28;20031;-66
2021/08/14 10:50:51;;;;;;;47.90;33.27;;;;;;;22.55;94.37;102011.41;5150674;28;20019;-66
2021/08/14 10:53:23;;;;;;;40.05;29.88;;;;;;;22.48;94.46;102013.13;5151633;28;20034;-65
2021/08/14 10:55:55;;;;;;;39.53;30.43;;;;;;;22.56;94.61;101997.03;5150565;28;20035;-68
2021/08/14 10:58:30;;;;;;;37.78;29.48;;;;;;;22.60;94.52;101995.66;5150695;29;20030;-65
2021/08/14 11:01:04;;;;;;;42.35;30.25;;;;;;;22.68;93.02;102008.94;5150129;28;20038;-68
2021/08/14 11:03:37;;;;;;;38.80;28.98;;;;;;;22.53;92.42;102003.56;5147903;28;20547;-66
2021/08/14 11:06:32;;;;;;;40.25;28.45;;;;;;;22.85;93.33;102009.63;5147268;28;20039;-66
2021/08/14 11:09:18;;;;;;;42.95;35.05;;;;;;;22.87;93.00;102004.06;5144185;28;20031;-66
2021/08/14 11:11:49;;;;;;;39.65;31.08;;;;;;;22.91;90.84;102014.25;5146385;28;20039;-66
2021/08/14 11:14:37;;;;;;;38.33;31.00;;;;;;;23.06;91.59;102004.38;5147192;28;20584;-66
2021/08/14 11:17:11;;;;;;;36.90;30.80;;;;;;;22.98;90.79;101998.31;5148791;29;20050;-65
2021/08/14 11:19:51;;;;;;;41.65;33.78;;;;;;;23.04;92.37;102001.09;5151594;28;20441;-66
2021/08/14 11:22:29;;;;;;;44.70;35.65;;;;;;;22.99;90.20;101998.13;5150881;29;20061;-66
2021/08/14 11:25:05;;;;;;;42.85;33.03;;;;;;;22.97;91.39;101988.66;5149751;29;20460;-64
2021/08/14 11:27:37;;;;;;;43.90;33.13;;;;;;;23.13;91.13;101984.94;5150958;29;20039;-65
2021/08/14 11:30:09;;;;;;;44.00;35.20;;;;;;;23.24;89.87;101982.63;5150557;28;20272;-65
2021/08/14 11:32:42;;;;;;;45.65;35.83;;;;;;;23.10;91.20;101993.34;5149781;28;20039;-67